Time,TemperatureF,DewpointF,PressureIn,WindDirection,WindDirectionDegrees,WindSpeedMPH,WindSpeedGustMPH,Humidity,HourlyPrecipIn,Conditions,Clouds,dailyrainin,SoftwareType,DateUTC
2013-04-12 00:01:00,37.9,19.0,30.06,SW,232,0.0,0.0,46,0.00,,,0.00,WeatherCatV1.12B45,2013-04-12 07:01:00,
2013-04-12 00:06:00,37.4,19.0,30.06,SW,232,0.0,0.0,47,0.00,,,0.00,WeatherCatV1.12B45,2013-04-12 07:06:00,
2013-04-12 00:11:00,36.9,19.5,30.06,SW,232,0.0,0.0,49,0.00,,,0.00,WeatherCatV1.12B45,2013-04-12 07:11:00,
2013-04-12 00:16:00,36.5,19.6,30.06,South,186,0.0,0.0,50,0.00,,,0.00,WeatherCatV1.12B45,2013-04-12 07:16:00,
2013-04-12 00:21:00,36.1,19.3,30.06,South,186,0.0,0.0,50,0.00,,,0.00,WeatherCatV1.12B45,2013-04-12 07:21:00,
2013-04-12 00:26:00,36.1,19.8,30.06,South,186,0.0,0.0,51,0.00,,,0.00,WeatherCatV1.12B45,2013-04-12 07:26:00,
2013-04-12 00:31:00,36.0,20.1,30.06,South,186,0.0,0.0,52,0.00,,,0.00,WeatherCatV1.12B45,2013-04-12 07:31:00,
2013-04-12 00:36:00,35.8,19.9,30.06,South,186,0.0,0.0,52,0.00,,,0.00,WeatherCatV1.12B45,2013-04-12 07:36:00,
2013-04-12 00:41:00,35.6,20.2,30.06,South,186,0.0,0.0,53,0.00,,,0.00,WeatherCatV1.12B45,2013-04-12 07:41:00,
2013-04-12 00:46:00,35.6,20.2,30.06,South,186,0.0,0.0,53,0.00,,,0.00,WeatherCatV1.12B45,2013-04-12 07:46:00,
2013-04-12 00:51:00,35.6,20.6,30.06,South,180,0.0,0.0,54,0.00,,,0.00,WeatherCatV1.12B45,2013-04-12 07:51:00,
2013-04-12 00:56:00,35.6,20.6,30.06,South,179,0.0,0.0,54,0.00,,,0.00,WeatherCatV1.12B45,2013-04-12 07:56:00,
2013-04-12 01:01:00,35.4,20.4,30.06,South,180,0.0,0.0,54,0.00,,,0.00,WeatherCatV1.12B45,2013-04-12 08:01:00,
2013-04-12 01:06:00,35.2,20.7,30.06,South,180,0.0,0.0,55,0.00,,,0.00,WeatherCatV1.12B45,2013-04-12 08:06:00,
2013-04-12 01:11:00,35.1,21.0,30.06,South,180,0.0,0.0,56,0.00,,,0.00,WeatherCatV1.12B45,2013-04-12 08:11:00,
2013-04-12 01:16:00,35.1,21.4,30.06,South,180,0.0,0.0,57,0.00,,,0.00,WeatherCatV1.12B45,2013-04-12 08:16:00,
2013-04-12 01:21:00,35.1,21.8,30.06,South,180,0.0,0.0,58,0.00,,,0.00,WeatherCatV1.12B45,2013-04-12 08:21:00,
2013-04-12 01:26:00,35.2,21.6,30.06,South,180,0.0,0.0,57,0.00,,,0.00,WeatherCatV1.12B45,2013-04-12 08:26:00,
2013-04-12 01:31:00,35.1,21.4,30.06,South,180,0.0,0.0,57,0.00,,,0.00,WeatherCatV1.12B45,2013-04-12 08:31:00,
2013-04-12 01:37:00,34.9,21.2,30.06,South,180,0.0,0.0,57,0.00,,,0.00,WeatherCatV1.12B45,2013-04-12 08:37:00,
2013-04-12 01:41:00,34.7,21.5,30.06,South,180,0.0,0.0,58,0.00,,,0.00,WeatherCatV1.12B45,2013-04-12 08:41:00,
2013-04-12 01:47:00,34.5,21.3,30.06,South,180,0.0,0.0,58,0.00,,,0.00,WeatherCatV1.12B45,2013-04-12 08:47:00,
2013-04-12 01:52:00,34.5,21.7,30.06,South,180,0.0,0.0,59,0.00,,,0.00,WeatherCatV1.12B45,2013-04-12 08:52:00,
2013-04-12 01:57:00,34.9,22.4,30.06,South,180,0.0,0.0,60,0.00,,,0.00,WeatherCatV1.12B45,2013-04-12 08:57:00,
2013-04-12 02:02:00,34.9,22.0,30.06,South,180,0.0,0.0,59,0.00,,,0.00,WeatherCatV1.12B45,2013-04-12 09:02:00,
2013-04-12 02:07:00,34.5,21.3,30.06,South,180,0.0,0.0,58,0.00,,,0.00,WeatherCatV1.12B45,2013-04-12 09:07:00,
2013-04-12 02:12:00,34.2,21.3,30.06,South,180,0.0,0.0,59,0.00,,,0.00,WeatherCatV1.12B45,2013-04-12 09:12:00,
2013-04-12 02:17:00,33.8,21.0,30.06,South,180,0.0,0.0,59,0.00,,,0.00,WeatherCatV1.12B45,2013-04-12 09:17:00,
2013-04-12 02:22:00,33.6,21.2,30.06,South,180,0.0,0.0,60,0.00,,,0.00,WeatherCatV1.12B45,2013-04-12 09:22:00,
2013-04-12 02:27:00,33.6,22.0,30.06,South,180,0.0,0.0,62,0.00,,,0.00,WeatherCatV1.12B45,2013-04-12 09:27:00,
2013-04-12 02:32:00,33.6,22.4,30.06,South,180,0.0,0.0,63,0.00,,,0.00,WeatherCatV1.12B45,2013-04-12 09:32:00,
2013-04-12 02:37:00,33.6,22.8,30.06,South,180,0.0,0.0,64,0.00,,,0.00,WeatherCatV1.12B45,2013-04-12 09:37:00,
2013-04-12 02:42:00,33.8,22.9,30.06,South,179,0.0,0.0,64,0.00,,,0.00,WeatherCatV1.12B45,2013-04-12 09:42:00,
2013-04-12 02:47:00,33.6,22.8,30.03,South,180,0.0,0.0,64,0.00,,,0.00,WeatherCatV1.12B45,2013-04-12 09:47:00,
2013-04-12 02:52:00,33.6,23.1,30.03,South,180,0.0,0.0,65,0.00,,,0.00,WeatherCatV1.12B45,2013-04-12 09:52:00,
2013-04-12 02:57:00,33.6,22.8,30.03,South,180,0.0,0.0,64,0.00,,,0.00,WeatherCatV1.12B45,2013-04-12 09:57:00,
2013-04-12 03:02:00,33.6,22.8,30.06,South,180,0.0,0.0,64,0.00,,,0.00,WeatherCatV1.12B45,2013-04-12 10:02:00,
2013-04-12 03:07:00,33.6,22.8,30.06,South,180,0.0,0.0,64,0.00,,,0.00,WeatherCatV1.12B45,2013-04-12 10:07:00,
2013-04-12 03:12:00,33.4,22.6,30.06,South,180,0.0,0.0,64,0.00,,,0.00,WeatherCatV1.12B45,2013-04-12 10:12:00,
2013-04-12 03:17:00,33.3,22.4,30.06,South,180,0.0,0.0,64,0.00,,,0.00,WeatherCatV1.12B45,2013-04-12 10:17:00,
2013-04-12 03:22:00,33.1,22.2,30.06,South,180,0.0,0.0,64,0.00,,,0.00,WeatherCatV1.12B45,2013-04-12 10:22:00,
2013-04-12 03:27:00,32.9,22.4,30.06,South,180,0.0,0.0,65,0.00,,,0.00,WeatherCatV1.12B45,2013-04-12 10:27:00,
2013-04-12 03:32:00,32.9,22.4,30.03,South,180,0.0,0.0,65,0.00,,,0.00,WeatherCatV1.12B45,2013-04-12 10:32:00,
2013-04-12 03:37:00,32.5,22.5,30.03,South,180,0.0,0.0,66,0.00,,,0.00,WeatherCatV1.12B45,2013-04-12 10:37:00,
2013-04-12 03:42:00,32.5,22.5,30.03,South,180,0.0,0.0,66,0.00,,,0.00,WeatherCatV1.12B45,2013-04-12 10:42:00,
2013-04-12 03:47:00,32.5,22.8,30.03,South,180,0.0,0.0,67,0.00,,,0.00,WeatherCatV1.12B45,2013-04-12 10:47:00,
2013-04-12 03:52:00,32.5,23.2,30.03,South,180,0.0,0.0,68,0.00,,,0.00,WeatherCatV1.12B45,2013-04-12 10:52:00,
2013-04-12 03:57:00,32.4,23.7,30.03,South,180,0.0,0.0,70,0.00,,,0.00,WeatherCatV1.12B45,2013-04-12 10:57:00,
2013-04-12 04:02:00,32.4,23.7,30.03,South,180,0.0,0.0,70,0.00,,,0.00,WeatherCatV1.12B45,2013-04-12 11:02:00,
2013-04-12 04:07:00,32.2,23.5,30.03,South,180,0.0,0.0,70,0.00,,,0.00,WeatherCatV1.12B45,2013-04-12 11:07:00,
2013-04-12 04:12:00,32.2,23.5,30.03,South,180,0.0,0.0,70,0.00,,,0.00,WeatherCatV1.12B45,2013-04-12 11:12:00,
2013-04-12 04:17:00,32.5,24.5,30.03,South,180,0.0,0.0,72,0.00,,,0.00,WeatherCatV1.12B45,2013-04-12 11:17:00,
2013-04-12 04:22:00,32.5,24.2,30.03,South,180,0.0,0.0,71,0.00,,,0.00,WeatherCatV1.12B45,2013-04-12 11:22:00,
2013-04-12 04:27:00,32.4,24.0,30.03,South,180,0.0,0.0,71,0.00,,,0.00,WeatherCatV1.12B45,2013-04-12 11:27:00,
2013-04-12 04:32:00,32.5,24.5,30.03,South,180,0.0,0.0,72,0.00,,,0.00,WeatherCatV1.12B45,2013-04-12 11:32:00,
2013-04-12 04:37:00,32.5,24.5,30.03,South,180,0.0,0.0,72,0.00,,,0.00,WeatherCatV1.12B45,2013-04-12 11:37:00,
2013-04-12 04:42:00,32.2,23.9,30.03,South,180,0.0,0.0,71,0.00,,,0.00,WeatherCatV1.12B45,2013-04-12 11:42:00,
2013-04-12 04:47:00,31.8,23.5,30.03,South,180,0.0,0.0,71,0.00,,,0.00,WeatherCatV1.12B45,2013-04-12 11:47:00,
2013-04-12 04:52:00,31.8,23.8,30.03,South,180,0.0,0.0,72,0.00,,,0.00,WeatherCatV1.12B45,2013-04-12 11:52:00,
2013-04-12 04:57:00,32.0,24.0,30.03,South,180,0.0,0.0,72,0.00,,,0.00,WeatherCatV1.12B45,2013-04-12 11:57:00,
2013-04-12 05:02:00,31.8,23.8,30.03,South,180,0.0,0.0,72,0.00,,,0.00,WeatherCatV1.12B45,2013-04-12 12:02:00,
2013-04-12 05:07:00,31.6,24.0,30.03,South,180,0.0,0.0,73,0.00,,,0.00,WeatherCatV1.12B45,2013-04-12 12:07:00,
2013-04-12 05:12:00,31.3,23.6,30.03,South,180,0.0,0.0,73,0.00,,,0.00,WeatherCatV1.12B45,2013-04-12 12:12:00,
2013-04-12 05:17:00,30.7,22.8,30.06,South,180,0.0,0.0,72,0.00,,,0.00,WeatherCatV1.12B45,2013-04-12 12:17:00,
2013-04-12 05:22:00,30.6,22.6,30.06,South,180,0.0,0.0,72,0.00,,,0.00,WeatherCatV1.12B45,2013-04-12 12:22:00,
2013-04-12 05:27:00,30.4,22.8,30.06,South,180,0.0,0.0,73,0.00,,,0.00,WeatherCatV1.12B45,2013-04-12 12:27:00,
2013-04-12 05:32:00,30.6,23.3,30.06,South,180,0.0,0.0,74,0.00,,,0.00,WeatherCatV1.12B45,2013-04-12 12:32:00,
2013-04-12 05:37:00,30.7,23.5,30.06,South,180,0.0,0.0,74,0.00,,,0.00,WeatherCatV1.12B45,2013-04-12 12:37:00,
2013-04-12 05:42:00,30.7,23.5,30.06,South,180,0.0,0.0,74,0.00,,,0.00,WeatherCatV1.12B45,2013-04-12 12:42:00,
2013-04-12 05:47:00,31.1,24.1,30.03,South,180,0.0,0.0,75,0.00,,,0.00,WeatherCatV1.12B45,2013-04-12 12:47:00,
2013-04-12 05:52:00,31.6,25.0,30.03,South,180,0.0,0.0,76,0.00,,,0.00,WeatherCatV1.12B45,2013-04-12 12:52:00,
2013-04-12 05:57:00,32.4,26.0,30.03,South,180,0.0,0.0,77,0.00,,,0.00,WeatherCatV1.12B45,2013-04-12 12:57:00,
2013-04-12 06:02:00,32.7,26.3,30.06,South,180,0.0,0.0,77,0.00,,,0.00,WeatherCatV1.12B45,2013-04-12 13:02:00,
2013-04-12 06:07:00,32.7,26.3,30.06,South,180,0.0,0.0,77,0.00,,,0.00,WeatherCatV1.12B45,2013-04-12 13:07:00,
2013-04-12 06:12:00,32.4,25.7,30.06,South,180,0.0,0.0,76,0.00,,,0.00,WeatherCatV1.12B45,2013-04-12 13:12:00,
2013-04-12 06:17:00,32.2,25.2,30.06,South,179,0.0,0.0,75,0.00,,,0.00,WeatherCatV1.12B45,2013-04-12 13:17:00,
2013-04-12 06:22:00,32.0,25.0,30.06,South,180,0.0,0.0,75,0.00,,,0.00,WeatherCatV1.12B45,2013-04-12 13:22:00,
2013-04-12 06:27:00,31.8,24.8,30.06,South,180,0.0,0.0,75,0.00,,,0.00,WeatherCatV1.12B45,2013-04-12 13:27:00,
2013-04-12 06:32:00,31.8,25.1,30.03,South,180,0.0,0.0,76,0.00,,,0.00,WeatherCatV1.12B45,2013-04-12 13:32:00,
2013-04-12 06:37:00,32.0,25.3,30.03,South,180,0.0,0.0,76,0.00,,,0.00,WeatherCatV1.12B45,2013-04-12 13:37:00,
2013-04-12 06:42:00,32.2,25.8,30.03,South,179,0.0,0.0,77,0.00,,,0.00,WeatherCatV1.12B45,2013-04-12 13:42:00,
2013-04-12 06:47:00,32.2,25.8,30.03,South,180,0.0,0.0,77,0.00,,,0.00,WeatherCatV1.12B45,2013-04-12 13:47:00,
2013-04-12 06:52:00,32.5,25.8,30.03,South,180,0.0,0.0,76,0.00,,,0.00,WeatherCatV1.12B45,2013-04-12 13:52:00,
2013-04-12 06:57:00,33.3,26.8,30.03,South,180,0.0,0.0,77,0.00,,,0.00,WeatherCatV1.12B45,2013-04-12 13:57:00,
2013-04-12 07:02:00,34.9,28.4,30.06,South,180,0.0,0.0,77,0.00,,,0.00,WeatherCatV1.12B45,2013-04-12 14:02:00,
2013-04-12 07:07:00,34.9,28.4,30.06,South,180,0.0,0.0,77,0.00,,,0.00,WeatherCatV1.12B45,2013-04-12 14:07:00,
2013-04-12 07:12:00,34.5,27.4,30.06,South,180,0.0,0.0,75,0.00,,,0.00,WeatherCatV1.12B45,2013-04-12 14:12:00,
2013-04-12 07:17:00,34.3,26.6,30.06,South,179,0.0,0.0,73,0.00,,,0.00,WeatherCatV1.12B45,2013-04-12 14:17:00,
2013-04-12 07:22:00,34.5,26.4,30.06,South,180,0.0,0.0,72,0.00,,,0.00,WeatherCatV1.12B45,2013-04-12 14:22:00,
2013-04-12 07:27:00,34.9,26.8,30.06,South,180,0.0,0.0,72,0.00,,,0.00,WeatherCatV1.12B45,2013-04-12 14:27:00,
2013-04-12 07:32:00,35.2,27.1,30.03,South,180,0.0,0.0,72,0.00,,,0.00,WeatherCatV1.12B45,2013-04-12 14:32:00,
2013-04-12 07:37:00,35.6,27.5,30.03,South,179,0.0,0.0,72,0.00,,,0.00,WeatherCatV1.12B45,2013-04-12 14:37:00,
2013-04-12 07:42:00,36.1,27.3,30.03,South,180,0.0,0.0,70,0.00,,,0.00,WeatherCatV1.12B45,2013-04-12 14:42:00,
2013-04-12 07:47:00,36.3,26.1,30.03,South,180,0.0,0.0,66,0.00,,,0.00,WeatherCatV1.12B45,2013-04-12 14:47:00,
2013-04-12 07:52:00,36.9,25.8,30.03,South,179,0.0,0.0,64,0.00,,,0.00,WeatherCatV1.12B45,2013-04-12 14:52:00,
2013-04-12 07:57:00,37.4,24.8,30.03,South,179,0.0,0.0,60,0.00,,,0.00,WeatherCatV1.12B45,2013-04-12 14:57:00,
2013-04-12 08:02:00,37.6,24.2,30.03,South,180,2.7,2.7,58,0.00,,,0.00,WeatherCatV1.12B45,2013-04-12 15:02:00,
2013-04-12 08:07:00,37.6,23.3,30.03,South,179,0.0,0.0,56,0.00,,,0.00,WeatherCatV1.12B45,2013-04-12 15:07:00,
2013-04-12 08:12:00,37.6,23.3,30.03,South,179,0.0,0.0,56,0.00,,,0.00,WeatherCatV1.12B45,2013-04-12 15:12:00,
2013-04-12 08:17:00,37.8,23.5,30.03,South,179,0.0,0.0,56,0.00,,,0.00,WeatherCatV1.12B45,2013-04-12 15:17:00,
2013-04-12 08:22:00,38.1,23.4,30.03,South,179,0.0,0.0,55,0.00,,,0.00,WeatherCatV1.12B45,2013-04-12 15:22:00,
2013-04-12 08:27:00,38.3,22.7,30.03,South,180,0.0,0.0,53,0.00,,,0.00,WeatherCatV1.12B45,2013-04-12 15:27:00,
2013-04-12 08:32:00,38.5,23.3,30.03,South,179,0.0,0.0,54,0.00,,,0.00,WeatherCatV1.12B45,2013-04-12 15:32:00,
2013-04-12 08:37:00,38.8,23.2,30.03,NE,41,2.2,2.7,53,0.00,,,0.00,WeatherCatV1.12B45,2013-04-12 15:37:00,
2013-04-12 08:42:00,39.4,22.8,30.03,NE,41,0.0,3.6,51,0.00,,,0.00,WeatherCatV1.12B45,2013-04-12 15:42:00,
2013-04-12 08:47:00,40.1,23.9,30.03,NE,41,0.0,0.0,52,0.00,,,0.00,WeatherCatV1.12B45,2013-04-12 15:47:00,
2013-04-12 08:52:00,41.4,24.6,30.03,NNE,20,3.6,3.6,51,0.00,,,0.00,WeatherCatV1.12B45,2013-04-12 15:52:00,
2013-04-12 08:57:00,42.4,24.6,30.03,South,184,3.1,3.1,49,0.00,,,0.00,WeatherCatV1.12B45,2013-04-12 15:57:00,
2013-04-12 09:02:00,43.5,23.1,30.03,SE,136,6.3,6.3,44,0.00,,,0.00,WeatherCatV1.12B45,2013-04-12 16:02:00,
2013-04-12 09:07:00,43.9,21.7,30.03,South,188,0.0,0.0,41,0.00,,,0.00,WeatherCatV1.12B45,2013-04-12 16:07:00,
2013-04-12 09:12:00,44.2,22.0,30.03,East,80,0.0,3.1,41,0.00,,,0.00,WeatherCatV1.12B45,2013-04-12 16:12:00,
2013-04-12 09:17:00,44.4,22.2,30.03,ENE,64,0.0,0.0,41,0.00,,,0.00,WeatherCatV1.12B45,2013-04-12 16:17:00,
2013-04-12 09:22:00,44.6,21.2,30.03,South,172,2.2,5.4,39,0.00,,,0.00,WeatherCatV1.12B45,2013-04-12 16:22:00,
2013-04-12 09:27:00,44.2,21.5,30.03,ESE,109,4.0,6.3,40,0.00,,,0.00,WeatherCatV1.12B45,2013-04-12 16:27:00,
2013-04-12 09:32:00,44.1,21.3,30.00,SSE,165,2.7,4.0,40,0.00,,,0.00,WeatherCatV1.12B45,2013-04-12 16:32:00,
2013-04-12 09:37:00,44.4,21.0,30.00,SSE,152,2.7,4.9,39,0.00,,,0.00,WeatherCatV1.12B45,2013-04-12 16:37:00,
2013-04-12 09:42:00,45.3,21.2,30.00,NE,56,3.1,3.6,38,0.00,,,0.00,WeatherCatV1.12B45,2013-04-12 16:42:00,
2013-04-12 09:47:00,45.9,21.1,30.00,WSW,250,0.0,6.3,37,0.00,,,0.00,WeatherCatV1.12B45,2013-04-12 16:47:00,
2013-04-12 09:52:00,46.2,21.4,30.00,ESE,112,4.9,5.8,37,0.00,,,0.00,WeatherCatV1.12B45,2013-04-12 16:52:00,
2013-04-12 09:57:00,46.2,20.1,30.00,ENE,58,2.7,3.6,35,0.00,,,0.00,WeatherCatV1.12B45,2013-04-12 16:57:00,
2013-04-12 10:02:00,47.1,21.6,30.00,South,186,0.0,5.8,36,0.00,,,0.00,WeatherCatV1.12B45,2013-04-12 17:02:00,
2013-04-12 10:07:00,48.4,22.0,30.00,SE,146,2.2,4.9,35,0.00,,,0.00,WeatherCatV1.12B45,2013-04-12 17:07:00,
2013-04-12 10:12:00,48.4,20.6,30.00,ESE,122,7.2,7.2,33,0.00,,,0.00,WeatherCatV1.12B45,2013-04-12 17:12:00,
2013-04-12 10:17:00,49.3,20.7,29.97,ENE,60,4.0,5.4,32,0.00,,,0.00,WeatherCatV1.12B45,2013-04-12 17:17:00,
2013-04-12 10:22:00,49.5,20.1,29.97,South,176,4.0,6.3,31,0.00,,,0.00,WeatherCatV1.12B45,2013-04-12 17:22:00,
2013-04-12 10:27:00,49.8,20.4,29.97,East,79,2.7,8.1,31,0.00,,,0.00,WeatherCatV1.12B45,2013-04-12 17:27:00,
2013-04-12 10:32:00,49.6,19.5,29.97,NE,47,0.0,3.6,30,0.00,,,0.00,WeatherCatV1.12B45,2013-04-12 17:32:00,
2013-04-12 10:37:00,50.7,20.4,29.97,East,89,3.1,4.9,30,0.00,,,0.00,WeatherCatV1.12B45,2013-04-12 17:37:00,
2013-04-12 10:42:00,51.4,21.1,29.97,SSE,152,4.9,4.9,30,0.00,,,0.00,WeatherCatV1.12B45,2013-04-12 17:42:00,
2013-04-12 10:47:00,52.3,20.2,29.97,ESE,118,2.7,11.9,28,0.00,,,0.00,WeatherCatV1.12B45,2013-04-12 17:47:00,
2013-04-12 10:52:00,52.9,20.7,29.97,SE,142,2.7,5.4,28,0.00,,,0.00,WeatherCatV1.12B45,2013-04-12 17:52:00,
2013-04-12 10:57:00,53.2,20.1,29.97,South,182,4.0,5.8,27,0.00,,,0.00,WeatherCatV1.12B45,2013-04-12 17:57:00,
2013-04-12 11:02:00,53.2,21.0,29.97,ESE,107,3.6,6.7,28,0.00,,,0.00,WeatherCatV1.12B45,2013-04-12 18:02:00,
2013-04-12 11:07:00,52.7,20.5,29.97,SSW,206,3.6,4.9,28,0.00,,,0.00,WeatherCatV1.12B45,2013-04-12 18:07:00,
2013-04-12 11:12:00,52.7,20.5,29.97,SE,136,2.2,4.9,28,0.00,,,0.00,WeatherCatV1.12B45,2013-04-12 18:12:00,
2013-04-12 11:17:00,53.1,20.8,29.97,East,81,2.7,5.4,28,0.00,,,0.00,WeatherCatV1.12B45,2013-04-12 18:17:00,
2013-04-12 11:23:00,54.0,21.6,29.97,East,95,5.8,6.7,28,0.00,,,0.00,WeatherCatV1.12B45,2013-04-12 18:23:00,
2013-04-12 11:25:00,54.0,21.6,29.97,ESE,104,3.6,6.7,28,0.00,,,0.00,WeatherCatV1.12B45,2013-04-12 18:25:00,
2013-04-12 11:28:00,54.5,21.2,29.97,ESE,115,5.8,10.1,27,0.00,,,0.00,WeatherCatV1.12B45,2013-04-12 18:28:00,
2013-04-12 11:30:00,54.3,21.1,29.97,East,90,4.5,5.8,27,0.00,,,0.00,WeatherCatV1.12B45,2013-04-12 18:30:00,
2013-04-12 11:35:00,54.1,20.9,29.94,NNE,16,0.0,0.0,27,0.00,,,0.00,WeatherCatV1.12B45,2013-04-12 18:35:00,
2013-04-12 11:40:00,53.8,21.5,29.94,SSE,165,0.0,2.7,28,0.00,,,0.00,WeatherCatV1.12B45,2013-04-12 18:40:00,
2013-04-12 11:45:00,53.8,21.5,29.94,SSW,202,5.4,7.6,28,0.00,,,0.00,WeatherCatV1.12B45,2013-04-12 18:45:00,
2013-04-12 11:50:00,54.0,21.6,29.94,ESE,110,5.4,8.3,28,0.00,,,0.00,WeatherCatV1.12B45,2013-04-12 18:50:00,
2013-04-12 11:55:00,53.4,21.1,29.94,ESE,107,3.1,4.9,28,0.00,,,0.00,WeatherCatV1.12B45,2013-04-12 18:55:00,
2013-04-12 12:00:00,54.0,21.6,29.94,ENE,68,0.0,2.7,28,0.00,,,0.00,WeatherCatV1.12B45,2013-04-12 19:00:00,
2013-04-12 12:05:00,54.3,21.9,29.94,East,81,0.0,0.0,28,0.00,,,0.00,WeatherCatV1.12B45,2013-04-12 19:05:00,
2013-04-12 12:10:00,54.5,22.1,29.94,ENE,61,3.1,4.0,28,0.00,,,0.00,WeatherCatV1.12B45,2013-04-12 19:10:00,
2013-04-12 12:15:00,54.9,22.4,29.94,SSW,209,0.0,4.0,28,0.00,,,0.00,WeatherCatV1.12B45,2013-04-12 19:15:00,
2013-04-12 12:27:00,54.5,21.2,29.91,ESE,110,3.6,5.8,27,0.00,,,0.00,WeatherCatV1.12B45,2013-04-12 19:27:00,
2013-04-12 12:32:00,55.0,21.7,29.91,ESE,113,3.6,5.8,27,0.00,,,0.00,WeatherCatV1.12B45,2013-04-12 19:32:00,
2013-04-12 12:36:00,55.2,21.8,29.91,ESE,102,0.0,2.2,27,0.00,,,0.00,WeatherCatV1.12B45,2013-04-12 19:36:00,
2013-04-12 12:41:00,55.8,22.3,29.91,SE,145,4.0,8.7,27,0.00,,,0.00,WeatherCatV1.12B45,2013-04-12 19:41:00,
2013-04-12 12:46:00,56.1,21.7,29.91,ESE,110,2.2,5.4,26,0.00,,,0.00,WeatherCatV1.12B45,2013-04-12 19:46:00,
2013-04-12 12:51:00,57.0,22.5,29.88,SSE,158,7.6,8.1,26,0.00,,,0.00,WeatherCatV1.12B45,2013-04-12 19:51:00,
2013-04-12 12:56:00,57.2,21.7,29.88,SSE,167,5.8,6.3,25,0.00,,,0.00,WeatherCatV1.12B45,2013-04-12 19:56:00,
2013-04-12 13:01:00,57.0,22.5,29.88,South,184,2.7,7.6,26,0.00,,,0.00,WeatherCatV1.12B45,2013-04-12 20:01:00,
2013-04-12 13:06:00,56.7,21.2,29.88,SSW,213,3.6,6.3,25,0.00,,,0.00,WeatherCatV1.12B45,2013-04-12 20:06:00,
2013-04-12 13:11:00,56.5,21.1,29.88,ESE,118,6.3,6.3,25,0.00,,,0.00,WeatherCatV1.12B45,2013-04-12 20:11:00,
2013-04-12 13:16:00,56.3,20.9,29.88,SE,125,6.3,6.3,25,0.00,,,0.00,WeatherCatV1.12B45,2013-04-12 20:16:00,
2013-04-12 13:21:00,56.8,21.4,29.88,SSW,198,6.3,6.3,25,0.00,,,0.00,WeatherCatV1.12B45,2013-04-12 20:21:00,
2013-04-12 13:26:00,57.2,21.7,29.88,SSE,155,4.5,6.3,25,0.00,,,0.00,WeatherCatV1.12B45,2013-04-12 20:26:00,
2013-04-12 13:31:00,57.6,22.0,29.88,SSE,156,2.7,5.8,25,0.00,,,0.00,WeatherCatV1.12B45,2013-04-12 20:31:00,
2013-04-12 13:36:00,57.9,22.3,29.88,WSW,249,0.0,3.6,25,0.00,,,0.00,WeatherCatV1.12B45,2013-04-12 20:36:00,
2013-04-12 13:41:00,58.1,21.5,29.88,East,100,2.7,3.6,24,0.00,,,0.00,WeatherCatV1.12B45,2013-04-12 20:41:00,
2013-04-12 13:46:00,58.1,19.5,29.88,ESE,122,3.1,3.6,22,0.00,,,0.00,WeatherCatV1.12B45,2013-04-12 20:46:00,
2013-04-12 13:51:00,57.9,19.3,29.85,ESE,104,2.7,4.0,22,0.00,,,0.00,WeatherCatV1.12B45,2013-04-12 20:51:00,
2013-04-12 13:56:00,58.1,16.1,29.85,South,179,6.3,6.3,19,0.00,,,0.00,WeatherCatV1.12B45,2013-04-12 20:56:00,
2013-04-12 14:01:00,57.9,19.3,29.85,South,179,3.1,4.9,22,0.00,,,0.00,WeatherCatV1.12B45,2013-04-12 21:01:00,
2013-04-12 14:06:00,58.1,16.1,29.85,SW,232,5.4,8.7,19,0.00,,,0.00,WeatherCatV1.12B45,2013-04-12 21:06:00,
2013-04-12 14:11:00,58.5,16.4,29.85,SE,125,8.1,8.1,19,0.00,,,0.00,WeatherCatV1.12B45,2013-04-12 21:11:00,
2013-04-12 14:16:00,58.3,16.2,29.85,SSE,168,4.9,10.5,19,0.00,,,0.00,WeatherCatV1.12B45,2013-04-12 21:16:00,
2013-04-12 14:21:00,58.5,19.8,29.85,SSW,194,2.7,5.4,22,0.00,,,0.00,WeatherCatV1.12B45,2013-04-12 21:21:00,
2013-04-12 14:26:00,59.2,20.4,29.85,SSW,210,3.1,5.4,22,0.00,,,0.00,WeatherCatV1.12B45,2013-04-12 21:26:00,
2013-04-12 14:31:00,59.0,16.8,29.85,WSW,250,5.8,6.7,19,0.00,,,0.00,WeatherCatV1.12B45,2013-04-12 21:31:00,
2013-04-12 14:36:00,58.8,16.7,29.82,SE,145,3.1,6.3,19,0.00,,,0.00,WeatherCatV1.12B45,2013-04-12 21:36:00,
2013-04-12 14:41:00,59.2,17.0,29.82,SW,234,3.6,4.0,19,0.00,,,0.00,WeatherCatV1.12B45,2013-04-12 21:41:00,
2013-04-12 14:46:00,58.5,16.4,29.82,SE,128,0.0,10.5,19,0.00,,,0.00,WeatherCatV1.12B45,2013-04-12 21:46:00,
2013-04-12 14:51:00,57.9,13.4,29.82,WSW,250,4.0,5.8,17,0.00,,,0.00,WeatherCatV1.12B45,2013-04-12 21:51:00,
2013-04-12 14:56:00,57.9,15.9,29.82,SW,214,2.7,8.1,19,0.00,,,0.00,WeatherCatV1.12B45,2013-04-12 21:56:00,
2013-04-12 15:01:00,57.9,15.9,29.82,SSE,164,4.0,4.9,19,0.00,,,0.00,WeatherCatV1.12B45,2013-04-12 22:01:00,
2013-04-12 15:06:00,57.7,15.8,29.82,West,271,5.8,5.8,19,0.00,,,0.00,WeatherCatV1.12B45,2013-04-12 22:06:00,
2013-04-12 15:11:00,57.2,15.3,29.82,West,264,7.6,7.6,19,0.00,,,0.00,WeatherCatV1.12B45,2013-04-12 22:11:00,
2013-04-12 15:16:00,56.1,15.6,29.79,SE,138,0.0,4.9,20,0.00,,,0.00,WeatherCatV1.12B45,2013-04-12 22:16:00,
2013-04-12 15:21:00,55.6,15.2,29.79,SE,145,3.1,7.6,20,0.00,,,0.00,WeatherCatV1.12B45,2013-04-12 22:21:00,
2013-04-12 15:26:00,55.4,15.0,29.79,SSW,208,2.7,5.8,20,0.00,,,0.00,WeatherCatV1.12B45,2013-04-12 22:26:00,
2013-04-12 15:31:00,55.0,14.7,29.79,South,186,3.1,5.8,20,0.00,,,0.00,WeatherCatV1.12B45,2013-04-12 22:31:00,
2013-04-12 15:36:00,54.7,14.4,29.79,SSW,200,3.1,3.6,20,0.00,,,0.00,WeatherCatV1.12B45,2013-04-12 22:36:00,
2013-04-12 15:41:00,54.5,14.3,29.79,East,90,5.4,5.4,20,0.00,,,0.00,WeatherCatV1.12B45,2013-04-12 22:41:00,
2013-04-12 15:46:00,54.1,17.2,29.79,SE,140,3.1,6.3,23,0.00,,,0.00,WeatherCatV1.12B45,2013-04-12 22:46:00,
2013-04-12 15:51:00,54.0,13.8,29.79,West,272,6.3,8.3,20,0.00,,,0.00,WeatherCatV1.12B45,2013-04-12 22:51:00,
2013-04-12 15:56:00,53.8,13.7,29.79,WSW,244,2.7,3.1,20,0.00,,,0.00,WeatherCatV1.12B45,2013-04-12 22:56:00,
2013-04-12 16:01:00,53.4,14.5,29.76,West,272,5.4,8.7,21,0.00,,,0.00,WeatherCatV1.12B45,2013-04-12 23:01:00,
2013-04-12 16:06:00,53.2,14.3,29.76,SSW,201,0.0,8.3,21,0.00,,,0.00,WeatherCatV1.12B45,2013-04-12 23:06:00,
2013-04-12 16:11:00,53.2,14.3,29.76,WNW,303,0.0,0.0,21,0.00,,,0.00,WeatherCatV1.12B45,2013-04-12 23:11:00,
2013-04-12 16:16:00,53.4,14.5,29.76,South,175,0.0,0.0,21,0.00,,,0.00,WeatherCatV1.12B45,2013-04-12 23:16:00,
2013-04-12 16:21:00,53.2,16.4,29.76,ESE,105,3.1,4.0,23,0.00,,,0.00,WeatherCatV1.12B45,2013-04-12 23:21:00,
2013-04-12 16:26:00,53.2,14.3,29.76,ENE,71,0.0,0.0,21,0.00,,,0.00,WeatherCatV1.12B45,2013-04-12 23:26:00,
2013-04-12 16:31:00,53.2,14.3,29.76,West,264,0.0,4.0,21,0.00,,,0.00,WeatherCatV1.12B45,2013-04-12 23:31:00,
2013-04-12 16:37:00,53.2,16.4,29.76,SW,231,0.0,3.1,23,0.00,,,0.00,WeatherCatV1.12B45,2013-04-12 23:37:00,
2013-04-12 16:42:00,53.2,16.4,29.76,ENE,73,0.0,4.0,23,0.00,,,0.00,WeatherCatV1.12B45,2013-04-12 23:42:00,
2013-04-12 16:47:00,53.2,16.4,29.73,South,182,0.0,2.7,23,0.00,,,0.00,WeatherCatV1.12B45,2013-04-12 23:47:00,
2013-04-12 16:51:00,53.2,16.4,29.73,SSE,157,0.0,6.3,23,0.00,,,0.00,WeatherCatV1.12B45,2013-04-12 23:51:00,
2013-04-12 16:56:00,53.2,16.4,29.73,SSW,194,0.0,5.4,23,0.00,,,0.00,WeatherCatV1.12B45,2013-04-12 23:56:00,
2013-04-12 17:02:00,53.1,16.3,29.73,NNW,346,2.2,6.3,23,0.00,,,0.00,WeatherCatV1.12B45,2013-04-13 00:02:00,
2013-04-12 17:06:00,52.9,16.1,29.73,NNW,345,0.0,0.0,23,0.00,,,0.00,WeatherCatV1.12B45,2013-04-13 00:06:00,
2013-04-12 17:12:00,52.5,18.6,29.73,SW,216,0.0,0.0,26,0.00,,,0.00,WeatherCatV1.12B45,2013-04-13 00:12:00,
2013-04-12 17:17:00,52.2,18.3,29.73,SSW,201,6.3,6.3,26,0.00,,,0.00,WeatherCatV1.12B45,2013-04-13 00:17:00,
2013-04-12 17:22:00,52.0,15.4,29.73,South,176,4.0,6.3,23,0.00,,,0.00,WeatherCatV1.12B45,2013-04-13 00:22:00,
2013-04-12 17:27:00,52.0,15.4,29.73,NE,39,0.0,5.8,23,0.00,,,0.00,WeatherCatV1.12B45,2013-04-13 00:27:00,
2013-04-12 17:32:00,51.6,16.0,29.73,SW,222,2.7,3.6,24,0.00,,,0.00,WeatherCatV1.12B45,2013-04-13 00:32:00,
2013-04-12 17:37:00,51.4,17.7,29.73,East,96,0.0,2.2,26,0.00,,,0.00,WeatherCatV1.12B45,2013-04-13 00:37:00,
2013-04-12 17:42:00,51.3,15.7,29.73,SW,231,3.6,6.3,24,0.00,,,0.00,WeatherCatV1.12B45,2013-04-13 00:42:00,
2013-04-12 17:47:00,51.1,12.5,29.73,ENE,65,3.6,11.0,21,0.00,,,0.00,WeatherCatV1.12B45,2013-04-13 00:47:00,
2013-04-12 17:52:00,50.7,12.2,29.73,ENE,70,3.6,7.2,21,0.00,,,0.00,WeatherCatV1.12B45,2013-04-13 00:52:00,
2013-04-12 17:57:00,50.5,15.1,29.73,South,190,3.1,7.6,24,0.00,,,0.00,WeatherCatV1.12B45,2013-04-13 00:57:00,
2013-04-12 18:02:00,50.4,15.0,29.73,West,276,6.3,9.6,24,0.00,,,0.00,WeatherCatV1.12B45,2013-04-13 01:02:00,
2013-04-12 18:07:00,50.0,16.5,29.73,West,263,8.3,11.9,26,0.00,,,0.00,WeatherCatV1.12B45,2013-04-13 01:07:00,
2013-04-12 18:12:00,49.3,15.9,29.73,WSW,247,4.9,5.8,26,0.00,,,0.00,WeatherCatV1.12B45,2013-04-13 01:12:00,
2013-04-12 18:17:00,48.7,16.3,29.73,SSW,192,4.0,5.8,27,0.00,,,0.00,WeatherCatV1.12B45,2013-04-13 01:17:00,
2013-04-12 18:22:00,48.6,16.1,29.73,SW,235,0.0,3.1,27,0.00,,,0.00,WeatherCatV1.12B45,2013-04-13 01:22:00,
2013-04-12 18:27:00,47.8,16.3,29.73,East,101,3.6,5.8,28,0.00,,,0.00,WeatherCatV1.12B45,2013-04-13 01:27:00,
2013-04-12 18:32:00,47.3,16.7,29.73,NNE,20,5.4,8.7,29,0.00,,,0.00,WeatherCatV1.12B45,2013-04-13 01:32:00,
2013-04-12 18:37:00,46.8,17.0,29.73,East,98,3.1,3.6,30,0.00,,,0.00,WeatherCatV1.12B45,2013-04-13 01:37:00,
2013-04-12 18:42:00,46.4,17.4,29.73,WNW,286,5.8,5.8,31,0.00,,,0.00,WeatherCatV1.12B45,2013-04-13 01:42:00,
2013-04-12 18:47:00,46.0,19.9,29.70,West,270,3.6,4.0,35,0.00,,,0.00,WeatherCatV1.12B45,2013-04-13 01:47:00,
2013-04-12 18:52:00,45.5,20.8,29.70,ESE,106,2.2,4.0,37,0.00,,,0.00,WeatherCatV1.12B45,2013-04-13 01:52:00,
2013-04-12 18:57:00,45.1,21.1,29.70,West,275,5.4,5.4,38,0.00,,,0.00,WeatherCatV1.12B45,2013-04-13 01:57:00,
2013-04-12 19:02:00,44.4,21.6,29.70,NNW,346,4.9,8.7,40,0.00,,,0.00,WeatherCatV1.12B45,2013-04-13 02:02:00,
2013-04-12 19:07:00,43.7,23.8,29.70,North,350,0.0,7.2,45,0.00,,,0.00,WeatherCatV1.12B45,2013-04-13 02:07:00,
2013-04-12 19:12:00,43.0,24.1,29.70,NNW,338,2.2,6.3,47,0.00,,,0.00,WeatherCatV1.12B45,2013-04-13 02:12:00,
2013-04-12 19:17:00,42.3,25.4,29.70,SSW,192,2.2,2.2,51,0.00,,,0.00,WeatherCatV1.12B45,2013-04-13 02:17:00,
2013-04-12 19:22:00,41.9,25.6,29.70,NNE,32,0.0,3.6,52,0.00,,,0.00,WeatherCatV1.12B45,2013-04-13 02:22:00,
2013-04-12 19:27:00,41.5,27.9,29.70,NNE,33,0.0,3.6,58,0.00,,,0.00,WeatherCatV1.12B45,2013-04-13 02:27:00,
2013-04-12 19:32:00,41.0,26.5,29.70,West,279,2.2,6.3,56,0.00,,,0.00,WeatherCatV1.12B45,2013-04-13 02:32:00,
2013-04-12 19:37:00,40.8,30.0,29.70,North,349,0.0,3.1,65,0.00,,,0.00,WeatherCatV1.12B45,2013-04-13 02:37:00,
2013-04-12 19:42:00,40.6,31.3,29.70,West,268,0.0,0.0,69,0.00,,,0.00,WeatherCatV1.12B45,2013-04-13 02:42:00,
2013-04-12 19:47:00,40.5,31.5,29.70,ESE,119,2.7,5.8,70,0.00,,,0.00,WeatherCatV1.12B45,2013-04-13 02:47:00,
2013-04-12 19:52:00,40.3,31.6,29.70,SSE,157,0.0,0.0,71,0.00,,,0.00,WeatherCatV1.12B45,2013-04-13 02:52:00,
2013-04-12 19:57:00,40.3,32.7,29.70,WSW,253,2.7,5.8,74,0.00,,,0.00,WeatherCatV1.12B45,2013-04-13 02:57:00,
2013-04-12 20:02:00,40.3,33.3,29.70,ENE,58,0.0,0.0,76,0.00,,,0.00,WeatherCatV1.12B45,2013-04-13 03:02:00,
2013-04-12 20:07:00,40.1,33.2,29.70,SSE,166,0.0,6.3,76,0.00,,,0.00,WeatherCatV1.12B45,2013-04-13 03:07:00,
2013-04-12 20:12:00,39.9,33.3,29.70,SSE,168,3.1,5.8,77,0.00,,,0.00,WeatherCatV1.12B45,2013-04-13 03:12:00,
2013-04-12 20:17:00,40.1,33.5,29.67,SSE,149,2.7,4.9,77,0.00,,,0.00,WeatherCatV1.12B45,2013-04-13 03:17:00,
2013-04-12 20:22:00,40.1,33.8,29.67,SSE,165,0.0,0.0,78,0.00,,,0.00,WeatherCatV1.12B45,2013-04-13 03:22:00,
2013-04-12 20:27:00,40.1,33.8,29.67,WSW,238,4.0,5.8,78,0.00,,,0.00,WeatherCatV1.12B45,2013-04-13 03:27:00,
2013-04-12 20:32:00,40.1,33.8,29.67,ESE,106,0.0,4.0,78,0.00,,,0.00,WeatherCatV1.12B45,2013-04-13 03:32:00,
2013-04-12 20:37:00,40.1,34.1,29.67,WSW,244,0.0,0.0,79,0.00,,,0.00,WeatherCatV1.12B45,2013-04-13 03:37:00,
2013-04-12 20:42:00,40.1,34.1,29.67,SW,232,2.2,3.1,79,0.00,,,0.00,WeatherCatV1.12B45,2013-04-13 03:42:00,
2013-04-12 20:47:00,40.3,34.9,29.67,ESE,105,0.0,4.0,81,0.00,,,0.04,WeatherCatV1.12B45,2013-04-13 03:47:00,
2013-04-12 20:52:00,40.3,34.9,29.67,WSW,252,0.0,3.1,81,0.00,,,0.04,WeatherCatV1.12B45,2013-04-13 03:52:00,
2013-04-12 20:57:00,40.1,34.7,29.67,South,185,0.0,4.0,81,0.00,,,0.04,WeatherCatV1.12B45,2013-04-13 03:57:00,
2013-04-12 21:00:00,40.1,34.7,29.67,SE,136,0.0,2.7,81,0.00,,,0.04,WeatherCatV1.12B45,2013-04-13 04:00:00,
2013-04-12 21:01:00,40.1,34.7,29.67,East,98,3.1,4.0,81,0.00,,,0.04,WeatherCatV1.12B45,2013-04-13 04:01:00,
2013-04-12 21:06:00,39.9,34.9,29.67,SE,131,0.0,0.0,82,0.00,,,0.04,WeatherCatV1.12B45,2013-04-13 04:06:00,
2013-04-12 21:11:00,39.9,34.9,29.67,SSE,149,0.0,0.0,82,0.00,,,0.04,WeatherCatV1.12B45,2013-04-13 04:11:00,
2013-04-12 21:16:00,39.9,34.9,29.67,ESE,113,7.2,7.6,82,0.00,,,0.04,WeatherCatV1.12B45,2013-04-13 04:16:00,
2013-04-12 21:21:00,39.9,34.9,29.67,North,357,0.0,5.8,82,0.08,,,0.08,WeatherCatV1.12B45,2013-04-13 04:21:00,
2013-04-12 21:26:00,39.9,35.2,29.67,ESE,109,0.0,5.8,83,0.08,,,0.08,WeatherCatV1.12B45,2013-04-13 04:26:00,
2013-04-12 21:31:00,40.1,35.7,29.67,SSW,211,2.2,4.0,84,0.08,,,0.08,WeatherCatV1.12B45,2013-04-13 04:31:00,
2013-04-12 21:36:00,40.1,35.7,29.67,SW,220,2.2,4.9,84,0.08,,,0.08,WeatherCatV1.12B45,2013-04-13 04:36:00,
2013-04-12 21:41:00,40.1,35.7,29.67,South,185,0.0,4.0,84,0.08,,,0.08,WeatherCatV1.12B45,2013-04-13 04:41:00,
2013-04-12 21:46:00,39.9,35.8,29.64,East,100,3.1,4.0,85,0.08,,,0.08,WeatherCatV1.12B45,2013-04-13 04:46:00,
2013-04-12 21:51:00,39.9,35.8,29.64,ESE,120,3.6,5.4,85,0.08,,,0.08,WeatherCatV1.12B45,2013-04-13 04:51:00,
2013-04-12 21:56:00,39.9,35.8,29.64,ESE,117,0.0,2.2,85,0.08,,,0.08,WeatherCatV1.12B45,2013-04-13 04:56:00,
2013-04-12 22:01:00,39.9,36.1,29.64,SE,131,0.0,0.0,86,0.08,,,0.08,WeatherCatV1.12B45,2013-04-13 05:01:00,
2013-04-12 22:06:00,40.1,36.3,29.64,SE,133,3.1,5.4,86,0.08,,,0.08,WeatherCatV1.12B45,2013-04-13 05:06:00,
2013-04-12 22:11:00,39.9,36.1,29.64,SSW,205,2.7,2.7,86,0.08,,,0.08,WeatherCatV1.12B45,2013-04-13 05:11:00,
2013-04-12 22:16:00,39.9,36.1,29.64,SSW,192,4.9,5.4,86,0.08,,,0.08,WeatherCatV1.12B45,2013-04-13 05:16:00,
2013-04-12 22:21:00,39.9,36.1,29.64,SSE,153,0.0,0.0,86,0.08,,,0.08,WeatherCatV1.12B45,2013-04-13 05:21:00,
2013-04-12 22:26:00,39.7,35.9,29.64,ESE,111,2.2,5.8,86,0.08,,,0.08,WeatherCatV1.12B45,2013-04-13 05:26:00,
2013-04-12 22:31:00,39.7,35.9,29.64,ESE,112,3.6,4.9,86,0.08,,,0.08,WeatherCatV1.12B45,2013-04-13 05:31:00,
2013-04-12 22:36:00,39.7,35.9,29.64,East,97,5.8,6.3,86,0.08,,,0.08,WeatherCatV1.12B45,2013-04-13 05:36:00,
2013-04-12 22:41:00,39.7,35.9,29.64,South,184,2.7,4.0,86,0.08,,,0.08,WeatherCatV1.12B45,2013-04-13 05:41:00,
2013-04-12 22:46:00,39.7,36.2,29.61,SE,124,0.0,4.0,87,0.08,,,0.08,WeatherCatV1.12B45,2013-04-13 05:46:00,
2013-04-12 22:51:00,39.9,36.4,29.61,South,172,4.0,7.2,87,0.08,,,0.08,WeatherCatV1.12B45,2013-04-13 05:51:00,
2013-04-12 22:56:00,39.9,36.4,29.61,ESE,119,0.0,4.0,87,0.08,,,0.08,WeatherCatV1.12B45,2013-04-13 05:56:00,
2013-04-12 23:01:00,39.9,36.4,29.61,SE,129,3.6,3.6,87,0.08,,,0.08,WeatherCatV1.12B45,2013-04-13 06:01:00,
2013-04-12 23:06:00,39.9,36.4,29.61,SSE,155,3.6,3.6,87,0.08,,,0.08,WeatherCatV1.12B45,2013-04-13 06:06:00,
2013-04-12 23:11:00,40.1,36.5,29.61,SSW,195,0.0,6.3,87,0.08,,,0.08,WeatherCatV1.12B45,2013-04-13 06:11:00,
2013-04-12 23:16:00,40.1,36.5,29.61,South,191,0.0,4.0,87,0.08,,,0.08,WeatherCatV1.12B45,2013-04-13 06:16:00,
2013-04-12 23:22:00,40.3,36.7,29.61,South,185,0.0,0.0,87,0.08,,,0.08,WeatherCatV1.12B45,2013-04-13 06:22:00,
2013-04-12 23:27:00,40.3,36.7,29.61,SE,133,0.0,0.0,87,0.00,,,0.08,WeatherCatV1.12B45,2013-04-13 06:27:00,
2013-04-12 23:32:00,40.5,37.2,29.61,ESE,103,0.0,3.1,88,0.00,,,0.08,WeatherCatV1.12B45,2013-04-13 06:32:00,
2013-04-12 23:37:00,40.5,37.2,29.61,SSW,199,0.0,2.2,88,0.00,,,0.08,WeatherCatV1.12B45,2013-04-13 06:37:00,
2013-04-12 23:42:00,40.6,37.4,29.61,SSW,199,0.0,0.0,88,0.00,,,0.08,WeatherCatV1.12B45,2013-04-13 06:42:00,
2013-04-12 23:47:00,40.6,37.4,29.61,SSW,199,0.0,0.0,88,0.00,,,0.08,WeatherCatV1.12B45,2013-04-13 06:47:00,
2013-04-12 23:52:00,41.0,37.7,29.61,ESE,109,0.0,4.0,88,0.00,,,0.08,WeatherCatV1.12B45,2013-04-13 06:52:00,
2013-04-12 23:57:00,41.0,37.7,29.61,ESE,111,3.6,4.0,88,0.00,,,0.08,WeatherCatV1.12B45,2013-04-13 06:57:00,